Time;durP1;ratioP1;P1;durP2;ratioP2;P2;SDS_P1;SDS_P2;PMS_P1;PMS_P2;Temp;Humidity;BMP_temperature;BMP_pressure;BME280_temperature;BME280_humidity;BME280_pressure;Samples;Min_cycle;Max_cycle;Signal;HPM_P1;HPM_P2
2022/07/02 00:00:35;;;;;;;;;;;;;;;25.84;49.55;99668.38;3159257;28;19920;-66
2022/07/02 00:02:08;;;;;;;;;;;;;;;25.84;49.46;99679.03;3158546;28;20431;-66
2022/07/02 00:03:41;;;;;;;;;;;;;;;25.83;49.47;99681.91;3158586;28;19928;-66
2022/07/02 00:05:13;;;;;;;;;;;;;;;25.82;49.59;99690.88;3164385;28;19924;-66
2022/07/02 00:06:46;;;;;;;;;;;;;;;25.79;49.87;99689.38;3158671;28;19920;-67
2022/07/02 00:08:19;;;;;;;;;;;;;;;25.73;49.94;99679.38;3158639;28;19931;-67
2022/07/02 00:09:54;;;;;;;;;;;;;;;25.77;49.73;99688.72;3158463;28;19942;-67
2022/07/02 00:11:26;;;;;;;;;;;;;;;25.76;49.92;99691.53;3158411;28;20336;-66
2022/07/02 00:12:58;;;;;;;;;;;;;;;25.74;50.18;99693.56;3158168;28;19924;-67
2022/07/02 00:14:30;;;;;;;;;;;;;;;25.69;50.57;99688.72;3158634;28;19920;-66
2022/07/02 00:16:02;;;;;;;;;;;;;;;25.65;50.71;99690.91;3158268;28;20326;-66
2022/07/02 00:17:35;;;;;;;;;;;;;;;25.66;50.27;99691.72;3156929;28;20196;-66
2022/07/02 00:19:07;;;;;;;;;;;;;;;25.60;50.78;99687.91;3146483;28;19997;-67
2022/07/02 00:20:38;;;;;;;;;;;;;;;25.59;50.52;99696.91;3158542;28;19919;-67
2022/07/02 00:22:11;;;;;;;;;;;;;;;25.59;50.87;99702.25;3158318;28;19920;-67
2022/07/02 00:23:43;;;;;;;;;;;;;;;25.59;50.61;99696.09;3158261;28;19931;-67
2022/07/02 00:25:15;;;;;;;;;;;;;;;25.59;50.13;99694.25;3158335;28;19920;-66
2022/07/02 00:26:50;;;;;;;;;;;;;;;25.55;50.64;99700.06;3158498;28;19930;-67
2022/07/02 00:28:23;;;;;;;;;;;;;;;25.50;50.77;99691.75;3161416;28;20469;-67
2022/07/02 00:29:58;;;;;;;;;;;;;;;25.45;50.80;99697.59;3165160;28;19969;-67
2022/07/02 00:31:30;;;;;;;;;;;;;;;25.46;50.37;99690.41;3158279;28;19920;-66
2022/07/02 00:33:03;;;;;;;;;;;;;;;25.46;50.52;99693.09;3158574;28;19928;-67
2022/07/02 00:34:37;;;;;;;;;;;;;;;25.46;50.39;99696.56;3158040;28;19920;-67
2022/07/02 00:36:21;;;;;;;;;;;;;;;25.43;50.57;99692.41;3158299;28;20334;-66
2022/07/02 00:37:53;;;;;;;;;;;;;;;25.43;50.19;99688.91;3157880;28;19953;-66
2022/07/02 00:39:25;;;;;;;;;;;;;;;25.43;50.10;99692.41;3158160;28;19920;-66
2022/07/02 00:40:56;;;;;;;;;;;;;;;25.43;50.25;99692.41;3157411;28;19924;-66
2022/07/02 00:42:29;;;;;;;;;;;;;;;25.45;50.21;99700.25;3157883;28;19974;-67
2022/07/02 00:44:01;;;;;;;;;;;;;;;25.44;50.30;99690.59;3163237;28;20316;-66
2022/07/02 00:45:34;;;;;;;;;;;;;;;25.45;49.95;99694.09;3158217;28;20724;-67
2022/07/02 00:47:07;;;;;;;;;;;;;;;25.45;50.09;99694.09;3158200;28;19920;-67
2022/07/02 00:48:39;;;;;;;;;;;;;;;25.45;50.14;99699.44;3158282;28;19969;-66
2022/07/02 00:50:11;;;;;;;;;;;;;;;25.40;50.55;99697.25;3157595;28;19927;-67
2022/07/02 00:51:42;;;;;;;;;;;;;;;25.33;50.78;99696.25;3158172;28;20515;-67
2022/07/02 00:53:14;;;;;;;;;;;;;;;25.28;50.67;99698.59;3158308;28;19920;-66
2022/07/02 00:54:46;;;;;;;;;;;;;;;25.17;51.15;99697.94;3158208;28;19927;-66
2022/07/02 00:56:16;;;;;;;;;;;;;;;25.12;51.12;99700.22;3150621;28;20030;-66
2022/07/02 00:57:49;;;;;;;;;;;;;;;25.09;51.41;99705.88;3157929;28;20007;-67
2022/07/02 00:59:21;;;;;;;;;;;;;;;25.01;51.75;99699.72;3163926;28;19955;-66
2022/07/02 01:00:53;;;;;;;;;;;;;;;24.95;52.11;99711.84;3156026;28;19924;-66
2022/07/02 01:02:25;;;;;;;;;;;;;;;24.91;52.31;99699.88;3158211;28;19920;-66
2022/07/02 01:03:58;;;;;;;;;;;;;;;24.85;53.02;99703.19;3158039;28;19998;-66
2022/07/02 01:05:29;;;;;;;;;;;;;;;24.82;53.55;99698.19;3163743;28;20019;-66
2022/07/02 01:07:03;;;;;;;;;;;;;;;24.79;53.56;99698.50;3158047;28;20324;-67
2022/07/02 01:10:23;;;;;;;;;;;;;;;24.79;53.30;99693.16;3157841;28;20477;-67
2022/07/02 01:11:55;;;;;;;;;;;;;;;24.78;54.21;99699.50;3158029;28;19927;-66
2022/07/02 01:13:26;;;;;;;;;;;;;;;24.78;55.26;99702.16;3157896;28;20352;-66
2022/07/02 01:14:58;;;;;;;;;;;;;;;24.66;56.61;99697.13;3158324;28;20324;-67
2022/07/02 01:16:30;;;;;;;;;;;;;;;24.58;57.39;99691.81;3157813;28;19927;-66
2022/07/02 01:18:02;;;;;;;;;;;;;;;24.50;57.63;99699.75;3152408;28;19997;-66
2022/07/02 01:19:35;;;;;;;;;;;;;;;24.42;58.30;99697.91;3149279;28;19950;-66
2022/07/02 01:21:07;;;;;;;;;;;;;;;24.39;57.77;99689.38;3158369;28;20064;-66
2022/07/02 01:22:40;;;;;;;;;;;;;;;24.39;57.93;99692.88;3157940;28;19920;-66
2022/07/02 01:24:11;;;;;;;;;;;;;;;24.37;58.45;99686.84;3157490;28;19930;-66
2022/07/02 01:25:49;;;;;;;;;;;;;;;24.31;58.55;99687.50;3154126;28;19924;-66
2022/07/02 01:27:22;;;;;;;;;;;;;;;24.26;58.62;99692.50;3160360;28;20180;-66
2022/07/02 01:28:53;;;;;;;;;;;;;;;24.30;58.04;99697.31;3168040;28;19992;-66
2022/07/02 01:30:25;;;;;;;;;;;;;;;24.34;57.37;99700.50;3163089;28;19998;-66
2022/07/02 01:31:56;;;;;;;;;;;;;;;24.35;56.97;99702.19;3160287;28;19920;-66
2022/07/02 01:33:28;;;;;;;;;;;;;;;24.38;56.92;99706.34;3160675;28;19949;-66
2022/07/02 01:35:02;;;;;;;;;;;;;;;24.38;56.86;99699.19;3160421;28;19920;-66
2022/07/02 01:36:34;;;;;;;;;;;;;;;24.38;56.96;99698.38;3159649;28;19927;-66
2022/07/02 01:38:07;;;;;;;;;;;;;;;24.36;57.56;99697.69;3160129;28;19928;-66
2022/07/02 01:39:38;;;;;;;;;;;;;;;24.34;57.14;99705.81;3160226;28;19920;-66
2022/07/02 01:42:59;;;;;;;;;;;;;;;24.29;57.67;99695.66;3160435;28;20559;-66
2022/07/02 01:44:30;;;;;;;;;;;;;;;24.28;57.78;99698.47;3170034;28;20370;-66
2022/07/02 01:46:02;;;;;;;;;;;;;;;24.27;57.80;99700.31;3160420;28;19924;-67
2022/07/02 01:47:33;;;;;;;;;;;;;;;24.28;57.25;99706.44;3160002;28;19924;-66
2022/07/02 01:49:05;;;;;;;;;;;;;;;24.29;57.26;99700.16;3160250;28;19923;-66
2022/07/02 01:50:37;;;;;;;;;;;;;;;24.27;57.16;99700.31;3160086;28;20633;-66
2022/07/02 01:52:09;;;;;;;;;;;;;;;24.27;57.82;99707.47;3160150;28;19935;-66
2022/07/02 01:53:42;;;;;;;;;;;;;;;24.27;57.45;99700.31;3160076;28;20257;-66
2022/07/02 01:55:13;;;;;;;;;;;;;;;24.25;57.50;99698.78;3160162;28;20393;-67
2022/07/02 01:56:45;;;;;;;;;;;;;;;24.22;57.51;99694.63;3160155;28;19920;-66
2022/07/02 01:58:17;;;;;;;;;;;;;;;24.22;57.21;99701.78;3159977;28;20253;-67
2022/07/02 01:59:48;;;;;;;;;;;;;;;24.22;57.12;99694.63;3164811;28;20370;-67
2022/07/02 02:01:19;;;;;;;;;;;;;;;24.23;57.08;99695.47;3159680;28;19920;-66
2022/07/02 02:02:52;;;;;;;;;;;;;;;24.24;56.95;99699.78;3160018;28;19921;-67
2022/07/02 02:04:23;;;;;;;;;;;;;;;24.21;56.88;99703.59;3160916;28;19966;-66
2022/07/02 02:05:54;;;;;;;;;;;;;;;24.20;57.07;99698.47;3164303;28;19942;-67
2022/07/02 02:07:26;;;;;;;;;;;;;;;24.17;57.11;99698.78;3159942;28;19924;-66
2022/07/02 02:08:58;;;;;;;;;;;;;;;24.17;57.03;99701.44;3160042;28;20362;-66
2022/07/02 02:10:29;;;;;;;;;;;;;;;24.15;56.91;99700.75;3159999;28;20007;-66
2022/07/02 02:12:01;;;;;;;;;;;;;;;24.16;56.96;99694.44;3159610;28;19920;-66
2022/07/02 02:13:31;;;;;;;;;;;;;;;24.17;56.73;99699.59;3159765;28;19954;-67
2022/07/02 02:15:03;;;;;;;;;;;;;;;24.17;56.98;99699.59;3160108;28;20077;-66
2022/07/02 02:16:35;;;;;;;;;;;;;;;24.17;56.73;99698.78;3159626;28;19924;-66
2022/07/02 02:18:07;;;;;;;;;;;;;;;24.17;56.89;99699.59;3153610;28;19920;-66
2022/07/02 02:19:38;;;;;;;;;;;;;;;24.20;56.30;99706.44;3152120;28;19930;-66
2022/07/02 02:21:10;;;;;;;;;;;;;;;24.20;56.16;99698.47;3159884;28;20400;-67
2022/07/02 02:22:42;;;;;;;;;;;;;;;24.22;56.24;99704.44;3159754;28;19920;-66
2022/07/02 02:24:15;;;;;;;;;;;;;;;24.21;56.45;99700.94;3159889;28;19970;-66
2022/07/02 02:25:47;;;;;;;;;;;;;;;24.18;56.55;99695.94;3159825;28;19976;-66
2022/07/02 02:27:18;;;;;;;;;;;;;;;24.18;56.44;99695.94;3159672;28;20325;-66
2022/07/02 02:28:50;;;;;;;;;;;;;;;24.17;56.77;99690.78;3166649;28;19919;-66
2022/07/02 02:30:21;;;;;;;;;;;;;;;24.11;57.02;99702.03;3162893;28;19920;-67
2022/07/02 02:31:52;;;;;;;;;;;;;;;24.11;56.54;99704.72;3159796;28;20312;-66
2022/07/02 02:33:23;;;;;;;;;;;;;;;24.11;56.34;99700.25;3159091;28;19920;-66
2022/07/02 02:34:54;;;;;;;;;;;;;;;24.11;56.41;99702.91;3159451;28;19972;-66
2022/07/02 02:36:26;;;;;;;;;;;;;;;24.12;56.29;99703.72;3159011;28;19924;-67
2022/07/02 02:37:56;;;;;;;;;;;;;;;24.10;55.97;99703.88;3148817;28;19924;-66
2022/07/02 02:39:29;;;;;;;;;;;;;;;24.09;55.76;99706.72;3159395;28;20069;-67
2022/07/02 02:41:02;;;;;;;;;;;;;;;24.07;55.94;99713.00;3159707;28;19960;-66
2022/07/02 02:42:34;;;;;;;;;;;;;;;24.06;55.89;99710.53;3159431;28;19920;-66
2022/07/02 02:44:05;;;;;;;;;;;;;;;24.06;55.56;99713.19;3165890;28;19977;-66
2022/07/02 02:45:36;;;;;;;;;;;;;;;24.04;55.34;99710.66;3163194;28;19977;-66
2022/07/02 02:47:08;;;;;;;;;;;;;;;24.03;55.09;99708.19;3159711;28;19924;-66
2022/07/02 02:48:40;;;;;;;;;;;;;;;24.02;55.27;99711.84;3159358;28;19924;-66
2022/07/02 02:50:10;;;;;;;;;;;;;;;24.00;55.06;99717.31;3159233;28;20328;-66
2022/07/02 02:51:42;;;;;;;;;;;;;;;24.00;55.07;99719.13;3159034;28;20023;-66
2022/07/02 02:53:13;;;;;;;;;;;;;;;23.97;54.38;99722.09;3159306;28;19920;-66
2022/07/02 02:54:46;;;;;;;;;;;;;;;23.94;54.55;99712.63;3159674;28;20041;-66
2022/07/02 02:56:18;;;;;;;;;;;;;;;23.94;54.78;99714.44;3159440;28;19931;-66
2022/07/02 02:57:49;;;;;;;;;;;;;;;23.91;54.94;99712.09;3159243;28;19924;-66
2022/07/02 02:59:20;;;;;;;;;;;;;;;23.80;54.77;99715.84;3165110;28;20065;-66
2022/07/02 03:00:52;;;;;;;;;;;;;;;23.76;54.77;99714.50;3157262;28;19920;-67
2022/07/02 03:02:22;;;;;;;;;;;;;;;23.77;54.72;99708.19;3159225;28;19920;-67
2022/07/02 03:03:54;;;;;;;;;;;;;;;23.78;54.44;99715.16;3159098;28;19919;-66
2022/07/02 03:05:25;;;;;;;;;;;;;;;23.78;54.43;99715.16;3165516;28;19920;-66
2022/07/02 03:06:57;;;;;;;;;;;;;;;23.79;54.49;99723.00;3159278;28;20064;-67
2022/07/02 03:08:29;;;;;;;;;;;;;;;23.79;54.58;99719.50;3159213;28;19927;-66
2022/07/02 03:10:00;;;;;;;;;;;;;;;23.79;54.32;99724.81;3158887;28;19943;-66
2022/07/02 03:11:32;;;;;;;;;;;;;;;23.77;54.54;99727.63;3159009;28;19942;-67
2022/07/02 03:13:03;;;;;;;;;;;;;;;23.77;54.07;99722.31;3159047;28;20323;-66
2022/07/02 03:14:34;;;;;;;;;;;;;;;23.78;54.05;99721.34;3159172;28;19920;-66
2022/07/02 03:16:07;;;;;;;;;;;;;;;23.80;54.37;99723.81;3158893;28;19924;-67
2022/07/02 03:17:37;;;;;;;;;;;;;;;23.78;54.49;99726.66;3153365;28;20007;-66
2022/07/02 03:19:09;;;;;;;;;;;;;;;23.80;54.88;99734.47;3147318;28;19950;-67
2022/07/02 03:20:40;;;;;;;;;;;;;;;23.79;55.02;99732.81;3159147;28;19920;-67
2022/07/02 03:22:12;;;;;;;;;;;;;;;23.81;54.68;99731.66;3158881;28;20381;-67
2022/07/02 03:23:43;;;;;;;;;;;;;;;23.82;54.96;99729.81;3159107;28;20317;-67
2022/07/02 03:25:15;;;;;;;;;;;;;;;23.83;54.82;99729.66;3158724;28;20391;-66
2022/07/02 03:26:47;;;;;;;;;;;;;;;23.85;55.07;99737.50;3159010;28;20663;-67
2022/07/02 03:28:19;;;;;;;;;;;;;;;23.87;55.18;99735.53;3161256;28;19928;-67
2022/07/02 03:29:50;;;;;;;;;;;;;;;23.89;55.39;99743.31;3162577;28;19977;-66
2022/07/02 03:31:22;;;;;;;;;;;;;;;23.91;55.12;99746.69;3158975;28;19920;-66
2022/07/02 03:32:53;;;;;;;;;;;;;;;23.92;55.29;99735.88;3158633;28;20000;-67
2022/07/02 03:34:25;;;;;;;;;;;;;;;23.94;55.26;99739.22;3159327;28;19946;-67
2022/07/02 03:35:56;;;;;;;;;;;;;;;23.97;55.11;99743.38;3158755;28;19924;-67
2022/07/02 03:37:28;;;;;;;;;;;;;;;23.98;55.19;99745.03;3158640;28;19923;-66
2022/07/02 03:39:00;;;;;;;;;;;;;;;24.00;55.41;99748.41;3158855;28;20026;-66
2022/07/02 03:40:33;;;;;;;;;;;;;;;24.00;56.02;99749.22;3158785;28;19920;-66
2022/07/02 03:42:04;;;;;;;;;;;;;;;24.00;56.09;99751.06;3158999;28;19927;-66
2022/07/02 03:43:36;;;;;;;;;;;;;;;24.02;55.75;99757.88;3161123;28;20389;-67
2022/07/02 03:45:08;;;;;;;;;;;;;;;24.04;55.71;99755.88;3165620;28;19923;-67
2022/07/02 03:46:40;;;;;;;;;;;;;;;24.06;55.81;99761.06;3158714;28;19920;-66
2022/07/02 03:48:11;;;;;;;;;;;;;;;24.06;56.00;99764.56;3157749;28;19920;-67
2022/07/02 03:49:42;;;;;;;;;;;;;;;24.06;56.31;99761.06;3158281;28;19924;-66
2022/07/02 03:51:15;;;;;;;;;;;;;;;24.05;56.32;99760.22;3158896;28;19942;-67
2022/07/02 03:52:47;;;;;;;;;;;;;;;24.07;56.19;99763.53;3158819;28;20010;-67
2022/07/02 03:54:17;;;;;;;;;;;;;;;24.06;56.12;99759.22;3158403;28;19920;-67
2022/07/02 03:55:50;;;;;;;;;;;;;;;24.09;56.09;99762.56;3158390;28;20019;-67
2022/07/02 03:57:22;;;;;;;;;;;;;;;24.11;56.05;99764.09;3158525;28;19989;-67
2022/07/02 03:58:53;;;;;;;;;;;;;;;24.13;56.39;99761.25;3160856;28;19942;-66
2022/07/02 04:00:25;;;;;;;;;;;;;;;24.12;56.80;99764.91;3160050;28;19970;-66
2022/07/02 04:01:56;;;;;;;;;;;;;;;24.10;56.71;99767.72;3158452;28;19974;-67
2022/07/02 04:03:28;;;;;;;;;;;;;;;24.10;56.81;99769.56;3158658;28;19985;-66
2022/07/02 04:04:59;;;;;;;;;;;;;;;24.11;56.46;99769.41;3164442;28;19988;-67
2022/07/02 04:06:30;;;;;;;;;;;;;;;24.07;57.25;99766.22;3158320;28;19920;-66
2022/07/02 04:08:02;;;;;;;;;;;;;;;24.02;57.10;99771.19;3158467;28;20124;-66
2022/07/02 04:09:33;;;;;;;;;;;;;;;24.02;57.15;99770.34;3158485;28;19920;-67
2022/07/02 04:11:06;;;;;;;;;;;;;;;24.02;57.17;99768.53;3158513;28;19920;-66
2022/07/02 04:12:38;;;;;;;;;;;;;;;24.02;56.99;99773.03;3158592;28;19923;-66
2022/07/02 04:14:09;;;;;;;;;;;;;;;24.00;57.33;99769.66;3158620;28;19920;-66
2022/07/02 04:15:41;;;;;;;;;;;;;;;23.99;57.61;99776.00;3158445;28;20454;-66
2022/07/02 04:17:12;;;;;;;;;;;;;;;23.97;57.43;99770.81;3158576;28;19996;-66
2022/07/02 04:18:44;;;;;;;;;;;;;;;23.97;57.63;99773.47;3147080;28;20057;-66
2022/07/02 04:20:14;;;;;;;;;;;;;;;23.99;57.18;99771.50;3156038;28;19919;-67
2022/07/02 04:21:46;;;;;;;;;;;;;;;24.01;57.42;99774.00;3158295;28;19924;-66
2022/07/02 04:23:18;;;;;;;;;;;;;;;24.01;56.96;99776.66;3158188;28;19985;-67
2022/07/02 04:24:48;;;;;;;;;;;;;;;24.04;57.07;99777.16;3158217;28;20364;-66
2022/07/02 04:26:21;;;;;;;;;;;;;;;24.09;56.61;99770.56;3156679;28;19926;-67
2022/07/02 04:27:53;;;;;;;;;;;;;;;24.11;56.74;99773.88;3158449;28;19924;-66
2022/07/02 04:29:24;;;;;;;;;;;;;;;24.13;56.34;99772.72;3165783;28;19920;-67
2022/07/02 04:30:56;;;;;;;;;;;;;;;24.15;56.77;99773.41;3158436;28;19920;-67
2022/07/02 04:32:27;;;;;;;;;;;;;;;24.16;56.59;99774.25;3158356;28;19924;-66
2022/07/02 04:33:59;;;;;;;;;;;;;;;24.15;56.45;99776.06;3157967;28;19940;-67
2022/07/02 04:35:31;;;;;;;;;;;;;;;24.16;56.90;99777.72;3157900;28;19920;-66
2022/07/02 04:37:03;;;;;;;;;;;;;;;24.15;56.76;99778.75;3158583;28;19978;-66
2022/07/02 04:38:34;;;;;;;;;;;;;;;24.13;57.30;99775.41;3158313;28;19951;-66
2022/07/02 04:40:06;;;;;;;;;;;;;;;24.16;57.36;99776.91;3158114;28;19932;-67
2022/07/02 04:41:39;;;;;;;;;;;;;;;24.16;57.03;99776.91;3157919;28;19975;-67
2022/07/02 04:43:11;;;;;;;;;;;;;;;24.15;56.51;99775.25;3158358;28;19939;-67
2022/07/02 04:44:42;;;;;;;;;;;;;;;24.17;56.47;99778.59;3168290;28;19931;-66
2022/07/02 04:46:14;;;;;;;;;;;;;;;24.16;56.63;99780.41;3156978;28;20395;-66
2022/07/02 04:47:46;;;;;;;;;;;;;;;24.18;56.30;99785.56;3158091;28;19973;-66
2022/07/02 04:49:17;;;;;;;;;;;;;;;24.20;56.29;99781.78;3158191;28;19924;-66
2022/07/02 04:50:48;;;;;;;;;;;;;;;24.17;56.19;99782.09;3158176;28;19923;-66
2022/07/02 04:52:19;;;;;;;;;;;;;;;24.16;56.10;99783.06;3157766;28;19930;-66
2022/07/02 04:53:50;;;;;;;;;;;;;;;24.17;55.91;99784.75;3158050;28;20520;-66
2022/07/02 04:55:22;;;;;;;;;;;;;;;24.18;55.76;99775.75;3158100;28;19924;-66
2022/07/02 04:56:55;;;;;;;;;;;;;;;24.19;55.98;99776.59;3158010;28;20300;-66
2022/07/02 04:58:26;;;;;;;;;;;;;;;24.18;56.31;99774.94;3158031;28;19920;-66
2022/07/02 04:59:58;;;;;;;;;;;;;;;24.19;55.93;99780.09;3162257;28;19931;-66
2022/07/02 05:01:29;;;;;;;;;;;;;;;24.20;56.24;99781.78;3158418;28;19920;-66
2022/07/02 05:03:01;;;;;;;;;;;;;;;24.23;55.92;99794.75;3158239;28;20397;-66
2022/07/02 05:04:32;;;;;;;;;;;;;;;24.24;55.83;99785.78;3160379;28;20323;-66
2022/07/02 05:06:04;;;;;;;;;;;;;;;24.26;55.90;99782.97;3161328;28;20258;-66
2022/07/02 05:07:35;;;;;;;;;;;;;;;24.29;55.70;99787.97;3157903;28;20472;-66
2022/07/02 05:09:07;;;;;;;;;;;;;;;24.32;55.23;99786.84;3158055;28;20627;-66
2022/07/02 05:10:39;;;;;;;;;;;;;;;24.34;55.17;99780.31;3157847;28;19920;-66
2022/07/02 05:12:12;;;;;;;;;;;;;;;24.39;55.09;99770.06;3158159;28;19973;-67
2022/07/02 05:13:43;;;;;;;;;;;;;;;24.41;55.22;99778.72;3157663;28;20427;-66
2022/07/02 05:15:15;;;;;;;;;;;;;;;24.42;55.20;99776.88;3157986;28;19931;-67
2022/07/02 05:16:46;;;;;;;;;;;;;;;24.43;55.15;99778.56;3158104;28;19920;-66
2022/07/02 05:18:18;;;;;;;;;;;;;;;24.46;54.85;99776.47;3151147;28;20042;-66
2022/07/02 05:19:50;;;;;;;;;;;;;;;24.50;54.71;99776.97;3157964;28;19931;-66
2022/07/02 05:21:21;;;;;;;;;;;;;;;24.52;54.46;99777.63;3157537;28;19977;-67
2022/07/02 05:22:53;;;;;;;;;;;;;;;24.51;55.05;99776.78;3157719;28;20324;-66
2022/07/02 05:24:24;;;;;;;;;;;;;;;24.52;54.52;99772.28;3157669;28;19924;-67
2022/07/02 05:25:56;;;;;;;;;;;;;;;24.52;54.95;99773.16;3157920;28;19920;-66
2022/07/02 05:27:30;;;;;;;;;;;;;;;24.58;54.57;99777.00;3158018;28;19924;-67
2022/07/02 05:29:01;;;;;;;;;;;;;;;24.66;54.57;99778.84;3166474;28;19931;-66
2022/07/02 05:30:33;;;;;;;;;;;;;;;24.70;53.84;99780.22;3159586;28;20331;-66
2022/07/02 05:32:04;;;;;;;;;;;;;;;24.75;53.79;99776.03;3157842;28;19920;-66
2022/07/02 05:33:35;;;;;;;;;;;;;;;24.83;53.63;99782.41;3157658;28;20250;-66
2022/07/02 05:35:07;;;;;;;;;;;;;;;24.87;53.03;99779.25;3158316;28;19920;-66
2022/07/02 05:36:39;;;;;;;;;;;;;;;24.91;52.68;99779.78;3157926;28;19920;-66
2022/07/02 05:38:10;;;;;;;;;;;;;;;24.96;53.04;99783.63;3157348;28;19924;-66
2022/07/02 05:39:42;;;;;;;;;;;;;;;25.00;52.64;99781.47;3157808;28;19920;-66
2022/07/02 05:41:14;;;;;;;;;;;;;;;24.93;52.51;99767.13;3158013;28;19996;-66
2022/07/02 05:42:47;;;;;;;;;;;;;;;25.05;52.72;99781.78;3157978;28;20389;-66
2022/07/02 05:44:19;;;;;;;;;;;;;;;25.10;52.65;99779.47;3166027;28;20380;-66
2022/07/02 05:45:50;;;;;;;;;;;;;;;25.16;52.31;99784.19;3159784;28;20031;-66
2022/07/02 05:47:22;;;;;;;;;;;;;;;25.26;52.42;99785.88;3157782;28;19920;-67
2022/07/02 05:48:53;;;;;;;;;;;;;;;25.36;52.15;99783.91;3157877;28;20269;-66
2022/07/02 05:50:25;;;;;;;;;;;;;;;25.43;52.42;99785.72;3157833;28;19920;-67
2022/07/02 05:51:56;;;;;;;;;;;;;;;25.53;51.92;99785.56;3157871;28;19931;-66
2022/07/02 05:53:27;;;;;;;;;;;;;;;25.64;52.05;99787.91;3157579;28;20753;-68
2022/07/02 05:54:59;;;;;;;;;;;;;;;25.72;52.16;99780.91;3157917;28;19996;-66
2022/07/02 05:56:30;;;;;;;;;;;;;;;25.76;51.71;99787.56;3157742;28;19997;-66
2022/07/02 05:58:03;;;;;;;;;;;;;;;25.80;51.86;99788.91;3157940;28;19923;-66
2022/07/02 05:59:36;;;;;;;;;;;;;;;25.84;51.75;99784.91;3164400;28;19980;-67
2022/07/02 06:01:08;;;;;;;;;;;;;;;25.90;51.79;99788.75;3155777;28;19931;-67
2022/07/02 06:02:39;;;;;;;;;;;;;;;25.95;51.29;99797.09;3157804;28;19967;-67
2022/07/02 06:04:11;;;;;;;;;;;;;;;25.95;50.81;99787.25;3158142;28;19953;-67
2022/07/02 06:07:39;;;;;;;;;;;;;;;25.98;51.14;99791.41;3120146;28;19932;-67
2022/07/02 06:09:10;;;;;;;;;;;;;;;26.03;50.81;99787.25;3147836;28;19928;-68
2022/07/02 06:10:42;;;;;;;;;;;;;;;26.09;50.75;99793.75;3158024;28;19973;-67
2022/07/02 06:12:14;;;;;;;;;;;;;;;26.16;50.69;99792.03;3159876;28;19927;-67
2022/07/02 06:13:47;;;;;;;;;;;;;;;26.21;50.90;99796.88;3159829;28;19969;-65
2022/07/02 06:15:18;;;;;;;;;;;;;;;26.26;50.54;99795.34;3160099;28;20332;-67
2022/07/02 06:16:49;;;;;;;;;;;;;;;26.27;50.83;99796.19;3160052;28;19924;-65
2022/07/02 06:18:21;;;;;;;;;;;;;;;26.25;50.75;99792.88;3157839;28;19923;-65
2022/07/02 06:19:53;;;;;;;;;;;;;;;26.23;50.85;99789.53;3159836;28;19946;-66
2022/07/02 06:21:24;;;;;;;;;;;;;;;26.25;51.38;99788.34;3159784;28;19924;-66
2022/07/02 06:22:56;;;;;;;;;;;;;;;26.25;51.12;99788.34;3160019;28;19931;-67
2022/07/02 06:24:27;;;;;;;;;;;;;;;26.28;51.50;99789.84;3159939;28;19919;-67
2022/07/02 06:25:59;;;;;;;;;;;;;;;26.30;51.42;99788.69;3159491;28;19923;-67
2022/07/02 06:27:33;;;;;;;;;;;;;;;26.37;50.99;99793.34;3160299;28;19924;-67
2022/07/02 06:29:06;;;;;;;;;;;;;;;26.44;51.30;99796.97;3168758;28;19923;-67
2022/07/02 06:30:38;;;;;;;;;;;;;;;26.51;50.88;99787.31;3160844;28;19932;-67
2022/07/02 06:32:09;;;;;;;;;;;;;;;26.64;51.13;99786.75;3159715;28;19920;-67
2022/07/02 06:33:41;;;;;;;;;;;;;;;26.75;50.92;99779.19;3159887;28;19931;-68
2022/07/02 06:35:12;;;;;;;;;;;;;;;26.88;50.29;99786.63;3159813;28;19930;-67
2022/07/02 06:36:44;;;;;;;;;;;;;;;26.98;50.08;99789.09;3159668;28;19920;-67
2022/07/02 06:38:16;;;;;;;;;;;;;;;27.06;49.67;99785.53;3159432;28;19924;-67
2022/07/02 06:39:47;;;;;;;;;;;;;;;27.16;49.42;99789.69;3159686;28;19931;-67
2022/07/02 06:43:09;;;;;;;;;;;;;;;27.35;48.98;99788.38;3159828;28;20296;-67
2022/07/02 06:44:41;;;;;;;;;;;;;;;27.43;48.72;99799.03;3169955;28;19959;-67
2022/07/02 06:46:12;;;;;;;;;;;;;;;27.52;48.92;99791.78;3159862;28;19920;-67
2022/07/02 06:47:44;;;;;;;;;;;;;;;27.62;48.96;99792.34;3159665;28;19919;-67
2022/07/02 06:49:15;;;;;;;;;;;;;;;27.67;48.19;99797.16;3159464;28;19920;-67
2022/07/02 06:50:47;;;;;;;;;;;;;;;27.67;48.31;99789.16;3159491;28;19936;-67
2022/07/02 06:52:18;;;;;;;;;;;;;;;27.75;48.28;99793.59;3159425;28;19924;-67
2022/07/02 06:53:50;;;;;;;;;;;;;;;27.82;47.91;99795.38;3159145;28;19920;-67
2022/07/02 06:55:22;;;;;;;;;;;;;;;27.90;47.93;99789.16;3159306;28;19925;-67
2022/07/02 06:56:53;;;;;;;;;;;;;;;27.99;47.85;99792.56;3159322;28;19924;-67
2022/07/02 06:58:25;;;;;;;;;;;;;;;28.05;47.21;99790.00;3159443;28;19920;-67
2022/07/02 06:59:59;;;;;;;;;;;;;;;28.19;47.62;99787.50;3163439;28;19920;-67
2022/07/02 07:01:30;;;;;;;;;;;;;;;28.30;47.37;99792.41;3159489;28;19920;-67
2022/07/02 07:03:03;;;;;;;;;;;;;;;28.31;46.59;99784.19;3159380;28;19932;-67
2022/07/02 07:04:34;;;;;;;;;;;;;;;28.36;46.99;99789.81;3162053;28;20013;-67
2022/07/02 07:06:06;;;;;;;;;;;;;;;28.39;46.77;99785.09;3162072;28;19920;-67
2022/07/02 07:07:37;;;;;;;;;;;;;;;28.34;46.17;99785.69;3159283;28;19967;-67
2022/07/02 07:09:09;;;;;;;;;;;;;;;28.39;46.71;99785.09;3159492;28;19931;-67
2022/07/02 07:10:41;;;;;;;;;;;;;;;28.45;46.68;99790.59;3159137;28;19980;-67
2022/07/02 07:12:12;;;;;;;;;;;;;;;28.47;45.92;99787.72;3159518;28;20353;-67
2022/07/02 07:13:44;;;;;;;;;;;;;;;28.48;46.16;99789.38;3158892;28;20688;-67
2022/07/02 07:15:17;;;;;;;;;;;;;;;28.50;46.00;99793.53;3158805;28;19920;-67
2022/07/02 07:16:47;;;;;;;;;;;;;;;28.61;46.40;99789.56;3159122;28;20309;-67
2022/07/02 07:18:19;;;;;;;;;;;;;;;28.78;46.79;99788.34;3155911;28;19946;-67
2022/07/02 07:19:51;;;;;;;;;;;;;;;28.89;46.01;99792.38;3155842;28;19920;-64
2022/07/02 07:21:22;;;;;;;;;;;;;;;28.98;45.69;99801.97;3159229;28;19928;-65
2022/07/02 07:22:54;;;;;;;;;;;;;;;29.05;45.79;99798.56;3157996;28;20374;-65
2022/07/02 07:24:26;;;;;;;;;;;;;;;29.13;45.83;99801.97;3159142;28;19920;-66
2022/07/02 07:25:57;;;;;;;;;;;;;;;29.22;45.08;99800.84;3159031;28;19977;-65
2022/07/02 07:27:29;;;;;;;;;;;;;;;29.38;45.25;99798.94;3159041;28;19920;-65
2022/07/02 07:29:00;;;;;;;;;;;;;;;29.51;44.82;99801.72;3167511;28;19930;-65
2022/07/02 07:30:33;;;;;;;;;;;;;;;29.60;44.40;99800.56;3160791;28;19924;-65
2022/07/02 07:32:05;;;;;;;;;;;;;;;29.67;44.59;99804.19;3158954;28;19927;-65
2022/07/02 07:33:38;;;;;;;;;;;;;;;29.74;44.44;99803.41;3158805;28;19920;-65
2022/07/02 07:35:10;;;;;;;;;;;;;;;29.80;44.40;99799.94;3158894;28;19920;-65
2022/07/02 07:36:41;;;;;;;;;;;;;;;29.87;44.41;99798.97;3158816;28;19920;-65
2022/07/02 07:38:13;;;;;;;;;;;;;;;29.98;44.20;99799.47;3158840;28;19985;-65
2022/07/02 07:39:44;;;;;;;;;;;;;;;30.05;44.16;99795.81;3158824;28;19992;-65
2022/07/02 07:41:16;;;;;;;;;;;;;;;30.13;44.09;99802.88;3158836;28;19920;-65
2022/07/02 07:42:48;;;;;;;;;;;;;;;30.24;43.81;99796.16;3158799;28;19924;-65
2022/07/02 07:44:19;;;;;;;;;;;;;;;30.36;42.95;99795.41;3166962;28;19920;-65
2022/07/02 07:45:52;;;;;;;;;;;;;;;30.53;43.08;99800.47;3160642;28;19995;-65
2022/07/02 07:47:24;;;;;;;;;;;;;;;30.66;42.71;99792.44;3158562;28;20250;-65
2022/07/02 07:48:56;;;;;;;;;;;;;;;30.74;42.90;99786.91;3158513;28;20282;-65
2022/07/02 07:50:28;;;;;;;;;;;;;;;30.89;42.38;99788.66;3158646;28;19924;-65
2022/07/02 07:51:59;;;;;;;;;;;;;;;30.97;41.54;99786.63;3158586;28;20313;-65
2022/07/02 07:53:30;;;;;;;;;;;;;;;31.10;41.00;99793.88;3158380;28;20333;-65
2022/07/02 07:55:01;;;;;;;;;;;;;;;31.17;41.08;99793.91;3158568;28;19985;-65
2022/07/02 07:56:33;;;;;;;;;;;;;;;31.25;40.91;99793.72;3158437;28;19946;-64
2022/07/02 07:58:05;;;;;;;;;;;;;;;31.29;40.76;99800.31;3158610;28;19999;-65
2022/07/02 07:59:36;;;;;;;;;;;;;;;31.34;40.91;99795.16;3164872;28;19919;-65
2022/07/02 08:01:09;;;;;;;;;;;;;;;31.42;40.62;99799.56;3156676;28;19923;-65
2022/07/02 08:02:41;;;;;;;;;;;;;;;31.42;40.72;99800.41;3158404;28;19920;-65
2022/07/02 08:04:12;;;;;;;;;;;;;;;31.47;40.65;99795.25;3158269;28;20016;-65
2022/07/02 08:05:46;;;;;;;;;;;;;;;31.48;40.22;99799.56;3158050;28;20372;-65